sensor_id;sensor_type;location;lat;lon;timestamp;temperature;humidity
39189;DHT22;24915;50.858;4.376;2023-07-30T00:01:32;16.80;99.90
39189;DHT22;24915;50.858;4.376;2023-07-30T00:03:59;16.80;99.90
39189;DHT22;24915;50.858;4.376;2023-07-30T00:06:24;16.80;99.90
39189;DHT22;24915;50.858;4.376;2023-07-30T00:08:50;16.80;99.90
39189;DHT22;24915;50.858;4.376;2023-07-30T00:11:16;16.80;99.90
39189;DHT22;24915;50.858;4.376;2023-07-30T00:13:42;16.70;99.90
39189;DHT22;24915;50.858;4.376;2023-07-30T00:16:08;16.70;99.90
39189;DHT22;24915;50.858;4.376;2023-07-30T00:18:34;16.60;99.90
39189;DHT22;24915;50.858;4.376;2023-07-30T00:20:59;16.60;99.90
39189;DHT22;24915;50.858;4.376;2023-07-30T00:23:25;16.60;99.90
39189;DHT22;24915;50.858;4.376;2023-07-30T00:25:51;16.60;99.90
39189;DHT22;24915;50.858;4.376;2023-07-30T00:28:16;16.60;99.90
39189;DHT22;24915;50.858;4.376;2023-07-30T00:30:42;16.60;99.90
39189;DHT22;24915;50.858;4.376;2023-07-30T00:33:08;16.50;99.90
39189;DHT22;24915;50.858;4.376;2023-07-30T00:35:33;16.50;99.90
39189;DHT22;24915;50.858;4.376;2023-07-30T00:37:59;16.50;99.90
39189;DHT22;24915;50.858;4.376;2023-07-30T00:40:25;16.40;99.90
39189;DHT22;24915;50.858;4.376;2023-07-30T00:42:50;16.40;99.90
39189;DHT22;24915;50.858;4.376;2023-07-30T00:45:16;16.40;99.90
39189;DHT22;24915;50.858;4.376;2023-07-30T00:47:42;16.40;99.90
39189;DHT22;24915;50.858;4.376;2023-07-30T00:50:08;16.40;99.90
39189;DHT22;24915;50.858;4.376;2023-07-30T00:52:34;16.40;99.90
39189;DHT22;24915;50.858;4.376;2023-07-30T00:55:02;16.40;99.90
39189;DHT22;24915;50.858;4.376;2023-07-30T00:57:28;16.40;99.90
39189;DHT22;24915;50.858;4.376;2023-07-30T00:59:55;16.30;99.90
39189;DHT22;24915;50.858;4.376;2023-07-30T01:02:21;16.40;99.90
39189;DHT22;24915;50.858;4.376;2023-07-30T01:04:47;16.30;99.90
39189;DHT22;24915;50.858;4.376;2023-07-30T01:07:12;16.40;99.90
39189;DHT22;24915;50.858;4.376;2023-07-30T01:09:38;16.40;99.90
39189;DHT22;24915;50.858;4.376;2023-07-30T01:12:05;16.40;99.90
39189;DHT22;24915;50.858;4.376;2023-07-30T01:14:32;16.40;99.90
39189;DHT22;24915;50.858;4.376;2023-07-30T01:16:58;16.50;99.90
39189;DHT22;24915;50.858;4.376;2023-07-30T01:19:24;16.50;99.90
39189;DHT22;24915;50.858;4.376;2023-07-30T01:21:49;16.50;99.90
39189;DHT22;24915;50.858;4.376;2023-07-30T01:24:15;16.50;99.90
39189;DHT22;24915;50.858;4.376;2023-07-30T01:26:47;16.50;99.90
39189;DHT22;24915;50.858;4.376;2023-07-30T01:29:22;16.50;99.90
39189;DHT22;24915;50.858;4.376;2023-07-30T01:31:56;16.50;99.90
39189;DHT22;24915;50.858;4.376;2023-07-30T01:34:24;16.50;99.90
39189;DHT22;24915;50.858;4.376;2023-07-30T01:36:53;16.50;99.90
39189;DHT22;24915;50.858;4.376;2023-07-30T01:39:19;16.50;99.90
39189;DHT22;24915;50.858;4.376;2023-07-30T01:41:46;16.60;99.90
39189;DHT22;24915;50.858;4.376;2023-07-30T01:44:11;16.60;99.90
39189;DHT22;24915;50.858;4.376;2023-07-30T01:46:37;16.60;99.90
39189;DHT22;24915;50.858;4.376;2023-07-30T01:49:02;16.60;99.90
39189;DHT22;24915;50.858;4.376;2023-07-30T01:51:29;16.60;99.90
39189;DHT22;24915;50.858;4.376;2023-07-30T01:53:54;16.60;99.90
39189;DHT22;24915;50.858;4.376;2023-07-30T01:56:20;16.60;99.90
39189;DHT22;24915;50.858;4.376;2023-07-30T01:58:46;16.60;99.90
39189;DHT22;24915;50.858;4.376;2023-07-30T02:01:11;16.60;99.90
39189;DHT22;24915;50.858;4.376;2023-07-30T02:03:37;16.70;99.90
39189;DHT22;24915;50.858;4.376;2023-07-30T02:06:03;16.70;99.90
39189;DHT22;24915;50.858;4.376;2023-07-30T02:08:28;16.70;99.90
39189;DHT22;24915;50.858;4.376;2023-07-30T02:10:55;16.70;99.90
39189;DHT22;24915;50.858;4.376;2023-07-30T02:13:22;16.70;99.90
39189;DHT22;24915;50.858;4.376;2023-07-30T02:15:47;16.70;99.90
39189;DHT22;24915;50.858;4.376;2023-07-30T02:18:13;16.70;99.90
39189;DHT22;24915;50.858;4.376;2023-07-30T02:20:39;16.80;99.90
39189;DHT22;24915;50.858;4.376;2023-07-30T02:23:04;16.70;99.90
39189;DHT22;24915;50.858;4.376;2023-07-30T02:25:30;16.70;99.90
39189;DHT22;24915;50.858;4.376;2023-07-30T02:27:57;16.70;99.90
39189;DHT22;24915;50.858;4.376;2023-07-30T02:30:22;16.70;99.90
39189;DHT22;24915;50.858;4.376;2023-07-30T02:32:48;16.70;99.90
39189;DHT22;24915;50.858;4.376;2023-07-30T02:35:14;16.70;99.90
39189;DHT22;24915;50.858;4.376;2023-07-30T02:37:39;16.60;99.90
39189;DHT22;24915;50.858;4.376;2023-07-30T02:40:05;16.60;99.90
39189;DHT22;24915;50.858;4.376;2023-07-30T02:42:31;16.60;99.90
39189;DHT22;24915;50.858;4.376;2023-07-30T02:44:57;16.60;99.90
39189;DHT22;24915;50.858;4.376;2023-07-30T02:47:22;16.60;99.90
39189;DHT22;24915;50.858;4.376;2023-07-30T02:49:48;16.60;99.90
39189;DHT22;24915;50.858;4.376;2023-07-30T02:52:13;16.50;99.90
39189;DHT22;24915;50.858;4.376;2023-07-30T02:54:39;16.50;99.90
39189;DHT22;24915;50.858;4.376;2023-07-30T02:57:05;16.40;99.90
39189;DHT22;24915;50.858;4.376;2023-07-30T02:59:31;16.40;99.90
39189;DHT22;24915;50.858;4.376;2023-07-30T03:01:56;16.40;99.90
39189;DHT22;24915;50.858;4.376;2023-07-30T03:04:22;16.40;99.90
39189;DHT22;24915;50.858;4.376;2023-07-30T03:06:48;16.40;99.90
39189;DHT22;24915;50.858;4.376;2023-07-30T03:09:13;16.40;99.90
39189;DHT22;24915;50.858;4.376;2023-07-30T03:11:39;16.30;99.90
39189;DHT22;24915;50.858;4.376;2023-07-30T03:14:05;16.40;99.90
39189;DHT22;24915;50.858;4.376;2023-07-30T03:16:30;16.30;99.90
39189;DHT22;24915;50.858;4.376;2023-07-30T03:18:56;16.30;99.90
39189;DHT22;24915;50.858;4.376;2023-07-30T03:21:21;16.30;99.90
39189;DHT22;24915;50.858;4.376;2023-07-30T03:23:47;16.30;99.90
39189;DHT22;24915;50.858;4.376;2023-07-30T03:26:14;16.30;99.90
39189;DHT22;24915;50.858;4.376;2023-07-30T03:28:39;16.30;99.90
39189;DHT22;24915;50.858;4.376;2023-07-30T03:31:05;16.30;99.90
39189;DHT22;24915;50.858;4.376;2023-07-30T03:33:31;16.30;99.90
39189;DHT22;24915;50.858;4.376;2023-07-30T03:35:57;16.30;99.90
39189;DHT22;24915;50.858;4.376;2023-07-30T03:38:22;16.30;99.90
39189;DHT22;24915;50.858;4.376;2023-07-30T03:40:48;16.30;99.90
39189;DHT22;24915;50.858;4.376;2023-07-30T03:43:13;16.30;99.90
39189;DHT22;24915;50.858;4.376;2023-07-30T03:45:39;16.30;99.90
39189;DHT22;24915;50.858;4.376;2023-07-30T03:48:05;16.30;99.90
39189;DHT22;24915;50.858;4.376;2023-07-30T03:50:31;16.30;99.90
39189;DHT22;24915;50.858;4.376;2023-07-30T03:52:56;16.30;99.90
39189;DHT22;24915;50.858;4.376;2023-07-30T03:55:23;16.30;99.90
39189;DHT22;24915;50.858;4.376;2023-07-30T03:57:49;16.30;99.90
39189;DHT22;24915;50.858;4.376;2023-07-30T04:00:15;16.30;99.90
39189;DHT22;24915;50.858;4.376;2023-07-30T04:02:41;16.30;99.90
39189;DHT22;24915;50.858;4.376;2023-07-30T04:05:06;16.30;99.90
39189;DHT22;24915;50.858;4.376;2023-07-30T04:07:32;16.30;99.90
39189;DHT22;24915;50.858;4.376;2023-07-30T04:09:58;16.20;99.90
39189;DHT22;24915;50.858;4.376;2023-07-30T04:12:23;16.20;99.90
39189;DHT22;24915;50.858;4.376;2023-07-30T04:14:49;16.20;99.90
39189;DHT22;24915;50.858;4.376;2023-07-30T04:17:14;16.20;99.90
39189;DHT22;24915;50.858;4.376;2023-07-30T04:19:40;16.20;99.90
39189;DHT22;24915;50.858;4.376;2023-07-30T04:22:06;16.10;99.90
39189;DHT22;24915;50.858;4.376;2023-07-30T04:24:31;16.20;99.90
39189;DHT22;24915;50.858;4.376;2023-07-30T04:26:57;16.10;99.90
39189;DHT22;24915;50.858;4.376;2023-07-30T04:29:23;16.10;99.90
39189;DHT22;24915;50.858;4.376;2023-07-30T04:31:48;16.10;99.90
39189;DHT22;24915;50.858;4.376;2023-07-30T04:34:14;16.00;99.90
39189;DHT22;24915;50.858;4.376;2023-07-30T04:36:40;16.00;99.90
39189;DHT22;24915;50.858;4.376;2023-07-30T04:39:06;16.00;99.90
39189;DHT22;24915;50.858;4.376;2023-07-30T04:41:31;16.00;99.90
39189;DHT22;24915;50.858;4.376;2023-07-30T04:43:57;16.00;99.90
39189;DHT22;24915;50.858;4.376;2023-07-30T04:46:22;16.00;99.90
39189;DHT22;24915;50.858;4.376;2023-07-30T04:48:48;16.00;99.90
39189;DHT22;24915;50.858;4.376;2023-07-30T04:51:14;16.00;99.90
39189;DHT22;24915;50.858;4.376;2023-07-30T04:53:39;16.00;99.90
39189;DHT22;24915;50.858;4.376;2023-07-30T04:56:05;16.00;99.90
39189;DHT22;24915;50.858;4.376;2023-07-30T04:58:30;16.00;99.90
39189;DHT22;24915;50.858;4.376;2023-07-30T05:00:56;16.00;99.90
39189;DHT22;24915;50.858;4.376;2023-07-30T05:03:22;16.00;99.90
39189;DHT22;24915;50.858;4.376;2023-07-30T05:05:47;16.00;99.90
39189;DHT22;24915;50.858;4.376;2023-07-30T05:08:13;16.00;99.90
39189;DHT22;24915;50.858;4.376;2023-07-30T05:10:39;16.00;99.90
39189;DHT22;24915;50.858;4.376;2023-07-30T05:13:04;16.00;99.90
39189;DHT22;24915;50.858;4.376;2023-07-30T05:15:30;16.00;99.90
39189;DHT22;24915;50.858;4.376;2023-07-30T05:17:55;16.00;99.90
39189;DHT22;24915;50.858;4.376;2023-07-30T05:20:21;16.00;99.90
39189;DHT22;24915;50.858;4.376;2023-07-30T05:22:47;16.00;99.90
39189;DHT22;24915;50.858;4.376;2023-07-30T05:25:12;16.00;99.90
39189;DHT22;24915;50.858;4.376;2023-07-30T05:27:38;16.00;99.90
39189;DHT22;24915;50.858;4.376;2023-07-30T05:30:04;16.00;99.90
39189;DHT22;24915;50.858;4.376;2023-07-30T05:32:30;16.00;99.90
39189;DHT22;24915;50.858;4.376;2023-07-30T05:34:55;16.10;99.90
39189;DHT22;24915;50.858;4.376;2023-07-30T05:37:21;16.10;99.90
39189;DHT22;24915;50.858;4.376;2023-07-30T05:39:48;16.10;99.90
39189;DHT22;24915;50.858;4.376;2023-07-30T05:42:14;16.10;99.90
39189;DHT22;24915;50.858;4.376;2023-07-30T05:44:39;16.10;99.90
39189;DHT22;24915;50.858;4.376;2023-07-30T05:47:05;16.10;99.90
39189;DHT22;24915;50.858;4.376;2023-07-30T05:49:30;16.10;99.90
39189;DHT22;24915;50.858;4.376;2023-07-30T05:51:56;16.10;99.90
39189;DHT22;24915;50.858;4.376;2023-07-30T05:54:22;16.10;99.90
39189;DHT22;24915;50.858;4.376;2023-07-30T05:56:47;16.20;99.90
39189;DHT22;24915;50.858;4.376;2023-07-30T05:59:13;16.20;99.90
39189;DHT22;24915;50.858;4.376;2023-07-30T06:01:39;16.20;99.90
39189;DHT22;24915;50.858;4.376;2023-07-30T06:04:05;16.20;99.90
39189;DHT22;24915;50.858;4.376;2023-07-30T06:06:31;16.20;99.90
39189;DHT22;24915;50.858;4.376;2023-07-30T06:08:56;16.20;99.90
39189;DHT22;24915;50.858;4.376;2023-07-30T06:11:22;16.20;99.90
39189;DHT22;24915;50.858;4.376;2023-07-30T06:13:48;16.20;99.90
39189;DHT22;24915;50.858;4.376;2023-07-30T06:16:14;16.20;99.90
39189;DHT22;24915;50.858;4.376;2023-07-30T06:18:40;16.20;99.90
39189;DHT22;24915;50.858;4.376;2023-07-30T06:21:05;16.30;99.90
39189;DHT22;24915;50.858;4.376;2023-07-30T06:23:31;16.30;99.90
39189;DHT22;24915;50.858;4.376;2023-07-30T06:25:57;16.40;99.90
39189;DHT22;24915;50.858;4.376;2023-07-30T06:28:22;16.40;99.90
39189;DHT22;24915;50.858;4.376;2023-07-30T06:30:49;16.40;99.90
39189;DHT22;24915;50.858;4.376;2023-07-30T06:33:15;16.40;99.90
39189;DHT22;24915;50.858;4.376;2023-07-30T06:35:40;16.40;99.90
39189;DHT22;24915;50.858;4.376;2023-07-30T06:38:08;16.40;99.90
39189;DHT22;24915;50.858;4.376;2023-07-30T06:40:34;16.40;99.90
39189;DHT22;24915;50.858;4.376;2023-07-30T06:43:00;16.50;99.90
39189;DHT22;24915;50.858;4.376;2023-07-30T06:45:26;16.50;99.90
39189;DHT22;24915;50.858;4.376;2023-07-30T06:47:51;16.60;99.90
39189;DHT22;24915;50.858;4.376;2023-07-30T06:50:17;16.60;99.90
39189;DHT22;24915;50.858;4.376;2023-07-30T06:52:43;16.60;99.90
39189;DHT22;24915;50.858;4.376;2023-07-30T06:55:08;16.60;99.90
39189;DHT22;24915;50.858;4.376;2023-07-30T06:57:34;16.60;99.90
39189;DHT22;24915;50.858;4.376;2023-07-30T07:00:00;16.70;99.90
39189;DHT22;24915;50.858;4.376;2023-07-30T07:02:26;16.90;99.90
39189;DHT22;24915;50.858;4.376;2023-07-30T07:04:53;17.10;99.90
39189;DHT22;24915;50.858;4.376;2023-07-30T07:07:19;17.20;99.90
39189;DHT22;24915;50.858;4.376;2023-07-30T07:09:46;17.30;99.90
39189;DHT22;24915;50.858;4.376;2023-07-30T07:12:11;17.50;99.90
39189;DHT22;24915;50.858;4.376;2023-07-30T07:14:37;17.70;99.90
39189;DHT22;24915;50.858;4.376;2023-07-30T07:17:03;17.80;99.90
39189;DHT22;24915;50.858;4.376;2023-07-30T07:19:28;17.80;99.90
39189;DHT22;24915;50.858;4.376;2023-07-30T07:21:54;17.80;99.90
39189;DHT22;24915;50.858;4.376;2023-07-30T07:24:20;18.00;99.90
39189;DHT22;24915;50.858;4.376;2023-07-30T07:26:45;18.10;99.90
39189;DHT22;24915;50.858;4.376;2023-07-30T07:29:11;18.30;99.90
39189;DHT22;24915;50.858;4.376;2023-07-30T07:31:37;18.40;99.90
39189;DHT22;24915;50.858;4.376;2023-07-30T07:34:02;18.60;99.90
39189;DHT22;24915;50.858;4.376;2023-07-30T07:36:28;18.60;99.90
39189;DHT22;24915;50.858;4.376;2023-07-30T07:38:53;18.50;99.90
39189;DHT22;24915;50.858;4.376;2023-07-30T07:41:19;18.50;99.90
39189;DHT22;24915;50.858;4.376;2023-07-30T07:43:46;18.50;99.90
39189;DHT22;24915;50.858;4.376;2023-07-30T07:46:12;18.40;99.90
39189;DHT22;24915;50.858;4.376;2023-07-30T07:48:42;18.40;99.90
39189;DHT22;24915;50.858;4.376;2023-07-30T07:51:11;18.40;99.90
39189;DHT22;24915;50.858;4.376;2023-07-30T07:53:37;18.40;99.90
39189;DHT22;24915;50.858;4.376;2023-07-30T07:56:03;18.40;99.90
39189;DHT22;24915;50.858;4.376;2023-07-30T07:58:30;18.50;99.90
39189;DHT22;24915;50.858;4.376;2023-07-30T08:00:55;18.60;99.90
39189;DHT22;24915;50.858;4.376;2023-07-30T08:03:22;18.70;99.90
39189;DHT22;24915;50.858;4.376;2023-07-30T08:05:48;18.80;99.90
39189;DHT22;24915;50.858;4.376;2023-07-30T08:08:15;19.00;99.90
39189;DHT22;24915;50.858;4.376;2023-07-30T08:10:41;19.00;99.90
39189;DHT22;24915;50.858;4.376;2023-07-30T08:13:12;19.10;99.90
39189;DHT22;24915;50.858;4.376;2023-07-30T08:15:38;19.10;99.90
39189;DHT22;24915;50.858;4.376;2023-07-30T08:18:03;19.20;99.90
39189;DHT22;24915;50.858;4.376;2023-07-30T08:20:29;19.20;99.90
39189;DHT22;24915;50.858;4.376;2023-07-30T08:22:55;19.30;99.90
39189;DHT22;24915;50.858;4.376;2023-07-30T08:25:20;19.20;99.90
39189;DHT22;24915;50.858;4.376;2023-07-30T08:27:46;19.10;99.90
39189;DHT22;24915;50.858;4.376;2023-07-30T08:30:12;19.20;99.90
39189;DHT22;24915;50.858;4.376;2023-07-30T08:32:38;19.30;99.90
39189;DHT22;24915;50.858;4.376;2023-07-30T08:35:04;19.20;99.90
39189;DHT22;24915;50.858;4.376;2023-07-30T08:37:30;19.30;99.90
39189;DHT22;24915;50.858;4.376;2023-07-30T08:39:56;19.40;99.90
39189;DHT22;24915;50.858;4.376;2023-07-30T08:42:22;19.60;99.90
39189;DHT22;24915;50.858;4.376;2023-07-30T08:44:48;19.70;99.90
39189;DHT22;24915;50.858;4.376;2023-07-30T08:47:14;19.70;99.90
39189;DHT22;24915;50.858;4.376;2023-07-30T08:49:39;19.60;99.90
39189;DHT22;24915;50.858;4.376;2023-07-30T08:52:08;19.60;99.90
39189;DHT22;24915;50.858;4.376;2023-07-30T08:54:34;19.50;99.90
39189;DHT22;24915;50.858;4.376;2023-07-30T08:57:02;19.30;99.90
39189;DHT22;24915;50.858;4.376;2023-07-30T08:59:37;19.30;99.90
39189;DHT22;24915;50.858;4.376;2023-07-30T09:02:03;19.30;99.90
39189;DHT22;24915;50.858;4.376;2023-07-30T09:04:33;19.30;99.90
39189;DHT22;24915;50.858;4.376;2023-07-30T09:07:00;19.30;99.90
39189;DHT22;24915;50.858;4.376;2023-07-30T09:09:26;19.30;99.90
39189;DHT22;24915;50.858;4.376;2023-07-30T09:11:52;19.10;99.90
39189;DHT22;24915;50.858;4.376;2023-07-30T09:14:21;19.00;99.90
39189;DHT22;24915;50.858;4.376;2023-07-30T09:16:47;19.00;99.90
39189;DHT22;24915;50.858;4.376;2023-07-30T09:19:18;19.00;99.90
39189;DHT22;24915;50.858;4.376;2023-07-30T09:21:44;19.00;99.90
39189;DHT22;24915;50.858;4.376;2023-07-30T09:24:10;18.90;99.90
39189;DHT22;24915;50.858;4.376;2023-07-30T09:26:42;18.90;99.90
39189;DHT22;24915;50.858;4.376;2023-07-30T09:29:09;18.70;99.90
39189;DHT22;24915;50.858;4.376;2023-07-30T09:31:52;18.60;99.90
39189;DHT22;24915;50.858;4.376;2023-07-30T09:34:20;18.60;99.90
39189;DHT22;24915;50.858;4.376;2023-07-30T09:36:47;18.60;99.90
39189;DHT22;24915;50.858;4.376;2023-07-30T09:39:18;18.50;99.90
39189;DHT22;24915;50.858;4.376;2023-07-30T09:41:46;18.60;99.90
39189;DHT22;24915;50.858;4.376;2023-07-30T09:44:12;18.70;99.90
39189;DHT22;24915;50.858;4.376;2023-07-30T09:46:47;18.70;99.90
39189;DHT22;24915;50.858;4.376;2023-07-30T09:49:13;18.70;99.90
39189;DHT22;24915;50.858;4.376;2023-07-30T09:51:39;18.60;99.90
39189;DHT22;24915;50.858;4.376;2023-07-30T09:54:12;18.60;99.90
39189;DHT22;24915;50.858;4.376;2023-07-30T09:56:39;18.60;99.90
39189;DHT22;24915;50.858;4.376;2023-07-30T09:59:05;18.60;99.90
39189;DHT22;24915;50.858;4.376;2023-07-30T10:01:33;18.50;99.90
39189;DHT22;24915;50.858;4.376;2023-07-30T10:04:09;18.50;99.90
39189;DHT22;24915;50.858;4.376;2023-07-30T10:06:39;18.50;99.90
39189;DHT22;24915;50.858;4.376;2023-07-30T10:09:07;18.40;99.90
39189;DHT22;24915;50.858;4.376;2023-07-30T10:11:35;18.30;99.90
39189;DHT22;24915;50.858;4.376;2023-07-30T10:14:02;18.30;99.90
39189;DHT22;24915;50.858;4.376;2023-07-30T10:16:30;18.40;99.90
39189;DHT22;24915;50.858;4.376;2023-07-30T10:18:57;18.60;99.90
39189;DHT22;24915;50.858;4.376;2023-07-30T10:21:25;18.80;99.90
39189;DHT22;24915;50.858;4.376;2023-07-30T10:24:02;19.10;99.90
39189;DHT22;24915;50.858;4.376;2023-07-30T10:26:33;19.50;99.90
39189;DHT22;24915;50.858;4.376;2023-07-30T10:29:15;19.90;99.90
39189;DHT22;24915;50.858;4.376;2023-07-30T10:31:43;20.40;99.90
39189;DHT22;24915;50.858;4.376;2023-07-30T10:34:10;20.80;99.90
39189;DHT22;24915;50.858;4.376;2023-07-30T10:36:46;21.10;99.90
39189;DHT22;24915;50.858;4.376;2023-07-30T10:39:20;21.30;99.90
39189;DHT22;24915;50.858;4.376;2023-07-30T10:41:49;21.40;99.90
39189;DHT22;24915;50.858;4.376;2023-07-30T10:44:22;21.30;99.90
39189;DHT22;24915;50.858;4.376;2023-07-30T10:46:48;21.20;99.90
39189;DHT22;24915;50.858;4.376;2023-07-30T10:49:14;21.00;99.90
39189;DHT22;24915;50.858;4.376;2023-07-30T10:51:40;20.80;99.90
39189;DHT22;24915;50.858;4.376;2023-07-30T10:54:06;20.60;99.90
39189;DHT22;24915;50.858;4.376;2023-07-30T10:56:35;20.40;99.90
39189;DHT22;24915;50.858;4.376;2023-07-30T10:59:04;20.40;99.90
39189;DHT22;24915;50.858;4.376;2023-07-30T11:01:40;20.60;99.90
39189;DHT22;24915;50.858;4.376;2023-07-30T11:04:11;20.60;99.90
39189;DHT22;24915;50.858;4.376;2023-07-30T11:06:37;20.90;99.90
39189;DHT22;24915;50.858;4.376;2023-07-30T11:09:04;21.10;99.90
39189;DHT22;24915;50.858;4.376;2023-07-30T11:11:30;21.40;99.90
39189;DHT22;24915;50.858;4.376;2023-07-30T11:13:56;21.90;99.90
39189;DHT22;24915;50.858;4.376;2023-07-30T11:16:22;22.30;99.90
39189;DHT22;24915;50.858;4.376;2023-07-30T11:18:48;22.80;99.90
39189;DHT22;24915;50.858;4.376;2023-07-30T11:21:15;22.80;99.90
39189;DHT22;24915;50.858;4.376;2023-07-30T11:23:43;22.60;99.90
39189;DHT22;24915;50.858;4.376;2023-07-30T11:26:13;22.10;99.90
39189;DHT22;24915;50.858;4.376;2023-07-30T11:28:39;22.30;99.90
39189;DHT22;24915;50.858;4.376;2023-07-30T11:33:32;22.40;99.90
39189;DHT22;24915;50.858;4.376;2023-07-30T11:36:00;22.70;99.90
39189;DHT22;24915;50.858;4.376;2023-07-30T11:38:27;22.90;99.90
39189;DHT22;24915;50.858;4.376;2023-07-30T11:40:54;23.30;99.90
39189;DHT22;24915;50.858;4.376;2023-07-30T11:43:20;23.60;99.90
39189;DHT22;24915;50.858;4.376;2023-07-30T11:45:46;24.10;99.90
39189;DHT22;24915;50.858;4.376;2023-07-30T11:48:12;24.50;99.90
39189;DHT22;24915;50.858;4.376;2023-07-30T11:50:45;24.60;99.50
39189;DHT22;24915;50.858;4.376;2023-07-30T11:53:11;24.50;98.60
39189;DHT22;24915;50.858;4.376;2023-07-30T11:55:38;24.50;99.40
39189;DHT22;24915;50.858;4.376;2023-07-30T11:58:08;24.70;99.30
39189;DHT22;24915;50.858;4.376;2023-07-30T12:00:36;24.70;97.90
39189;DHT22;24915;50.858;4.376;2023-07-30T12:03:03;24.50;98.50
39189;DHT22;24915;50.858;4.376;2023-07-30T12:05:38;24.80;99.20
39189;DHT22;24915;50.858;4.376;2023-07-30T12:08:06;24.50;96.90
39189;DHT22;24915;50.858;4.376;2023-07-30T12:10:46;24.10;97.40
39189;DHT22;24915;50.858;4.376;2023-07-30T12:13:19;23.80;97.70
39189;DHT22;24915;50.858;4.376;2023-07-30T12:15:52;24.10;98.70
39189;DHT22;24915;50.858;4.376;2023-07-30T12:18:19;24.10;97.30
39189;DHT22;24915;50.858;4.376;2023-07-30T12:20:45;24.10;97.70
39189;DHT22;24915;50.858;4.376;2023-07-30T12:23:11;24.50;98.10
39189;DHT22;24915;50.858;4.376;2023-07-30T12:25:37;24.80;97.60
39189;DHT22;24915;50.858;4.376;2023-07-30T12:28:03;24.50;96.90
39189;DHT22;24915;50.858;4.376;2023-07-30T12:30:29;24.10;97.50
39189;DHT22;24915;50.858;4.376;2023-07-30T12:32:56;23.90;97.10
39189;DHT22;24915;50.858;4.376;2023-07-30T12:35:22;23.80;97.30
39189;DHT22;24915;50.858;4.376;2023-07-30T12:37:48;23.50;98.00
39189;DHT22;24915;50.858;4.376;2023-07-30T12:40:14;23.20;98.40
39189;DHT22;24915;50.858;4.376;2023-07-30T12:42:40;23.20;99.00
39189;DHT22;24915;50.858;4.376;2023-07-30T12:45:06;23.10;98.50
39189;DHT22;24915;50.858;4.376;2023-07-30T12:47:32;23.00;98.30
39189;DHT22;24915;50.858;4.376;2023-07-30T12:50:00;22.70;98.90
39189;DHT22;24915;50.858;4.376;2023-07-30T12:52:26;22.60;99.50
39189;DHT22;24915;50.858;4.376;2023-07-30T12:54:52;22.90;99.20
39189;DHT22;24915;50.858;4.376;2023-07-30T12:57:18;23.30;99.40
39189;DHT22;24915;50.858;4.376;2023-07-30T12:59:43;23.40;98.70
39189;DHT22;24915;50.858;4.376;2023-07-30T13:02:09;23.10;98.60
39189;DHT22;24915;50.858;4.376;2023-07-30T13:04:35;23.30;98.90
39189;DHT22;24915;50.858;4.376;2023-07-30T13:07:00;23.80;98.30
39189;DHT22;24915;50.858;4.376;2023-07-30T13:09:28;24.30;96.10
39189;DHT22;24915;50.858;4.376;2023-07-30T13:11:53;24.90;95.70
39189;DHT22;24915;50.858;4.376;2023-07-30T13:14:19;25.20;94.60
39189;DHT22;24915;50.858;4.376;2023-07-30T13:16:44;25.40;94.20
39189;DHT22;24915;50.858;4.376;2023-07-30T13:19:10;25.20;93.80
39189;DHT22;24915;50.858;4.376;2023-07-30T13:21:36;25.40;94.20
39189;DHT22;24915;50.858;4.376;2023-07-30T13:24:02;25.10;93.70
39189;DHT22;24915;50.858;4.376;2023-07-30T13:26:28;25.40;93.20
39189;DHT22;24915;50.858;4.376;2023-07-30T13:28:54;25.80;92.90
39189;DHT22;24915;50.858;4.376;2023-07-30T13:31:19;25.50;92.00
39189;DHT22;24915;50.858;4.376;2023-07-30T13:33:45;25.00;92.80
39189;DHT22;24915;50.858;4.376;2023-07-30T13:36:13;24.80;93.50
39189;DHT22;24915;50.858;4.376;2023-07-30T13:38:39;25.10;93.30
39189;DHT22;24915;50.858;4.376;2023-07-30T13:41:05;25.30;93.20
39189;DHT22;24915;50.858;4.376;2023-07-30T13:43:32;25.10;93.30
39189;DHT22;24915;50.858;4.376;2023-07-30T13:45:57;25.40;93.70
39189;DHT22;24915;50.858;4.376;2023-07-30T13:48:26;26.00;93.60
39189;DHT22;24915;50.858;4.376;2023-07-30T13:50:52;26.40;92.20
39189;DHT22;24915;50.858;4.376;2023-07-30T13:53:18;26.30;91.10
39189;DHT22;24915;50.858;4.376;2023-07-30T13:55:44;26.20;91.40
39189;DHT22;24915;50.858;4.376;2023-07-30T13:58:10;25.70;91.00
39189;DHT22;24915;50.858;4.376;2023-07-30T14:00:36;25.10;92.20
39189;DHT22;24915;50.858;4.376;2023-07-30T14:03:02;24.80;92.80
39189;DHT22;24915;50.858;4.376;2023-07-30T14:05:27;24.60;93.10
39189;DHT22;24915;50.858;4.376;2023-07-30T14:07:54;24.50;93.30
39189;DHT22;24915;50.858;4.376;2023-07-30T14:10:22;24.80;93.90
39189;DHT22;24915;50.858;4.376;2023-07-30T14:12:49;24.70;94.10
39189;DHT22;24915;50.858;4.376;2023-07-30T14:15:15;24.90;94.40
39189;DHT22;24915;50.858;4.376;2023-07-30T14:17:41;24.70;94.20
39189;DHT22;24915;50.858;4.376;2023-07-30T14:20:07;24.40;94.80
39189;DHT22;24915;50.858;4.376;2023-07-30T14:22:34;24.00;95.40
39189;DHT22;24915;50.858;4.376;2023-07-30T14:24:59;23.50;96.00
39189;DHT22;24915;50.858;4.376;2023-07-30T14:27:25;23.30;96.60
39189;DHT22;24915;50.858;4.376;2023-07-30T14:29:51;23.20;97.00
39189;DHT22;24915;50.858;4.376;2023-07-30T14:32:19;23.30;97.10
39189;DHT22;24915;50.858;4.376;2023-07-30T14:34:45;23.60;97.00
39189;DHT22;24915;50.858;4.376;2023-07-30T14:37:10;23.80;97.30
39189;DHT22;24915;50.858;4.376;2023-07-30T14:39:36;24.00;96.90
39189;DHT22;24915;50.858;4.376;2023-07-30T14:42:02;24.10;96.80
39189;DHT22;24915;50.858;4.376;2023-07-30T14:44:28;23.80;97.00
39189;DHT22;24915;50.858;4.376;2023-07-30T14:46:53;23.60;97.80
39189;DHT22;24915;50.858;4.376;2023-07-30T14:49:19;23.50;98.10
39189;DHT22;24915;50.858;4.376;2023-07-30T14:51:45;23.40;98.40
39189;DHT22;24915;50.858;4.376;2023-07-30T14:54:12;23.20;98.70
39189;DHT22;24915;50.858;4.376;2023-07-30T14:56:38;23.10;99.00
39189;DHT22;24915;50.858;4.376;2023-07-30T14:59:04;23.10;99.30
39189;DHT22;24915;50.858;4.376;2023-07-30T15:01:30;23.10;99.40
39189;DHT22;24915;50.858;4.376;2023-07-30T15:03:56;22.90;99.50
39189;DHT22;24915;50.858;4.376;2023-07-30T15:06:23;22.60;99.90
39189;DHT22;24915;50.858;4.376;2023-07-30T15:08:49;22.50;99.90
39189;DHT22;24915;50.858;4.376;2023-07-30T15:11:15;22.20;99.90
39189;DHT22;24915;50.858;4.376;2023-07-30T15:13:40;22.10;99.90
39189;DHT22;24915;50.858;4.376;2023-07-30T15:16:06;21.80;99.90
39189;DHT22;24915;50.858;4.376;2023-07-30T15:18:32;21.60;99.90
39189;DHT22;24915;50.858;4.376;2023-07-30T15:20:58;21.60;99.90
39189;DHT22;24915;50.858;4.376;2023-07-30T15:23:24;21.50;99.90
39189;DHT22;24915;50.858;4.376;2023-07-30T15:25:50;21.50;99.90
39189;DHT22;24915;50.858;4.376;2023-07-30T15:28:17;21.50;99.90